Time;durP1;ratioP1;P1;durP2;ratioP2;P2;SDS_P1;SDS_P2;PMS_P1;PMS_P2;Temp;Humidity;BMP_temperature;BMP_pressure;BME280_temperature;BME280_humidity;BME280_pressure;Samples;Min_cycle;Max_cycle;Signal;HPM_P1;HPM_P2
2021/03/13 00:02:58;;;;;;;3.30;0.77;;;;;;;;;;4918863;29;20181;-75
2021/03/13 00:06:03;;;;;;;3.20;0.80;;;;;;;;;;4921739;29;20236;-75
2021/03/13 00:09:07;;;;;;;2.90;1.00;;;;;;;;;;4928582;29;20196;-75
2021/03/13 00:12:11;;;;;;;4.73;0.73;;;;;;;;;;4936801;29;20220;-76
2021/03/13 00:15:16;;;;;;;2.83;0.83;;;;;;;;;;4919817;29;20640;-75
2021/03/13 00:18:20;;;;;;;2.93;0.80;;;;;;;;;;4918050;29;20189;-75
2021/03/13 00:21:24;;;;;;;2.57;0.70;;;;;;;;;;4918748;29;20555;-75
2021/03/13 00:24:28;;;;;;;3.30;0.97;;;;;;;;;;4917266;29;20192;-76
2021/03/13 00:27:45;;;;;;;3.07;0.90;;;;;;;;;;4927375;29;20196;-75
2021/03/13 00:30:50;;;;;;;2.47;0.90;;;;;;;;;;4937514;29;20216;-75
2021/03/13 00:33:58;;;;;;;4.33;1.00;;;;;;;;;;4938713;23;20193;31
2021/03/13 00:37:02;;;;;;;2.27;0.90;;;;;;;;;;4916325;29;20209;-77
2021/03/13 00:40:09;;;;;;;3.87;0.97;;;;;;;;;;4913748;29;20200;-76
2021/03/13 00:43:15;;;;;;;5.20;1.00;;;;;;;;;;4898446;29;20205;-76
2021/03/13 00:46:20;;;;;;;3.07;0.70;;;;;;;;;;4898591;29;20541;-76
2021/03/13 00:49:24;;;;;;;2.17;1.10;;;;;;;;;;4880600;29;20186;-76
2021/03/13 00:52:28;;;;;;;2.33;0.80;;;;;;;;;;4880484;29;20202;-77
2021/03/13 00:55:33;;;;;;;3.20;0.77;;;;;;;;;;4879543;29;20202;-77
2021/03/13 00:58:41;;;;;;;2.17;0.87;;;;;;;;;;4897350;29;20197;-76
2021/03/13 01:01:46;;;;;;;2.13;0.77;;;;;;;;;;4898046;29;20233;-76
2021/03/13 01:04:51;;;;;;;3.80;0.93;;;;;;;;;;4897823;29;20549;-76
2021/03/13 01:07:56;;;;;;;1.77;0.80;;;;;;;;;;4897810;29;20205;-77
2021/03/13 01:11:01;;;;;;;2.33;0.83;;;;;;;;;;4898188;29;20221;-76
2021/03/13 01:14:11;;;;;;;2.07;0.70;;;;;;;;;;4897880;29;20201;-76
2021/03/13 01:17:21;;;;;;;2.30;0.60;;;;;;;;;;4897661;29;20189;-76
2021/03/13 01:20:26;;;;;;;3.10;0.80;;;;;;;;;;4898054;29;20225;-77
2021/03/13 01:23:32;;;;;;;3.60;0.60;;;;;;;;;;4898068;29;20177;-77
2021/03/13 01:26:37;;;;;;;1.17;0.73;;;;;;;;;;4886671;29;20209;-77
2021/03/13 01:29:43;;;;;;;1.83;0.77;;;;;;;;;;4887156;29;20189;-77
2021/03/13 01:32:53;;;;;;;2.70;0.73;;;;;;;;;;4887264;29;20182;-77
2021/03/13 01:35:58;;;;;;;3.03;0.67;;;;;;;;;;4897281;29;20205;-76
2021/03/13 01:39:04;;;;;;;3.33;0.90;;;;;;;;;;4879180;29;20527;-77
2021/03/13 01:42:10;;;;;;;3.50;0.73;;;;;;;;;;4899649;29;20221;-77
2021/03/13 01:45:20;;;;;;;2.30;0.60;;;;;;;;;;4897668;29;20209;-77
2021/03/13 01:48:32;;;;;;;1.20;0.80;;;;;;;;;;4897373;29;20197;-77
2021/03/13 01:51:37;;;;;;;2.20;1.00;;;;;;;;;;4897219;29;20216;-77
2021/03/13 01:54:48;;;;;;;1.70;0.70;;;;;;;;;;4897370;29;20178;-77
2021/03/13 01:57:53;;;;;;;3.17;1.13;;;;;;;;;;4897378;29;20189;-76
2021/03/13 02:01:05;;;;;;;1.07;0.63;;;;;;;;;;4897226;29;20221;-77
2021/03/13 02:04:12;;;;;;;1.87;0.80;;;;;;;;;;4897647;29;20189;-76
2021/03/13 02:07:52;;;;;;;2.43;0.67;;;;;;;;;;4897311;29;20546;-77
2021/03/13 02:11:24;;;;;;;3.03;0.80;;;;;;;;;;4886399;29;20225;-77
2021/03/13 02:14:40;;;;;;;2.33;0.83;;;;;;;;;;4897442;29;20181;-76
2021/03/13 02:18:02;;;;;;;2.00;0.80;;;;;;;;;;4897002;29;20193;-77
2021/03/13 02:21:34;;;;;;;2.63;0.77;;;;;;;;;;4897193;29;20225;-77
2021/03/13 02:25:19;;;;;;;2.30;0.80;;;;;;;;;;4887403;29;20201;-76
2021/03/13 02:28:35;;;;;;;2.90;0.80;;;;;;;;;;4897222;29;20201;-77
2021/03/13 02:31:43;;;;;;;1.83;0.60;;;;;;;;;;4896801;29;20225;-77
2021/03/13 02:34:54;;;;;;;3.20;0.67;;;;;;;;;;4897329;29;20668;-77
2021/03/13 02:38:03;;;;;;;5.90;0.90;;;;;;;;;;4886175;29;20189;-77
2021/03/13 02:41:17;;;;;;;2.90;0.93;;;;;;;;;;4896704;29;20217;-76
2021/03/13 02:44:23;;;;;;;2.57;0.80;;;;;;;;;;4896972;29;20182;-77
2021/03/13 02:47:34;;;;;;;0.93;0.63;;;;;;;;;;4899085;29;20240;-77
2021/03/13 02:50:42;;;;;;;4.30;0.70;;;;;;;;;;4900529;29;20217;-77
2021/03/13 02:53:54;;;;;;;8.90;1.30;;;;;;;;;;4900481;29;20177;-77
2021/03/13 02:57:01;;;;;;;5.30;0.80;;;;;;;;;;4890143;29;20649;-76
2021/03/13 03:00:07;;;;;;;4.23;0.80;;;;;;;;;;4889819;29;20185;-77
2021/03/13 03:03:12;;;;;;;3.13;0.90;;;;;;;;;;4882607;29;20182;-76
2021/03/13 03:06:34;;;;;;;3.03;0.70;;;;;;;;;;4910179;29;20210;-76
2021/03/13 03:09:40;;;;;;;1.90;0.83;;;;;;;;;;4900507;29;20194;-77
2021/03/13 03:12:47;;;;;;;1.83;0.80;;;;;;;;;;4900657;29;20182;-77
2021/03/13 03:15:53;;;;;;;3.23;0.90;;;;;;;;;;4899982;29;20201;-76
2021/03/13 03:18:59;;;;;;;2.57;0.80;;;;;;;;;;4881574;29;20209;-76
2021/03/13 03:22:07;;;;;;;2.20;0.87;;;;;;;;;;4881522;29;20222;-77
2021/03/13 03:25:12;;;;;;;2.83;0.97;;;;;;;;;;4887447;29;20189;-77
2021/03/13 03:28:18;;;;;;;1.77;0.80;;;;;;;;;;4900381;29;20634;-76
2021/03/13 03:31:28;;;;;;;2.93;0.90;;;;;;;;;;4889453;29;20225;-77
2021/03/13 03:34:32;;;;;;;4.03;1.10;;;;;;;;;;4888495;29;20209;-77
2021/03/13 03:37:38;;;;;;;3.43;1.00;;;;;;;;;;4899718;29;20645;-76
2021/03/13 03:40:44;;;;;;;1.90;1.07;;;;;;;;;;4888664;29;20693;-77
2021/03/13 03:43:55;;;;;;;3.90;1.07;;;;;;;;;;4900431;29;20182;-76
2021/03/13 03:47:04;;;;;;;3.63;1.67;;;;;;;;;;4881370;29;20551;-76
2021/03/13 03:50:13;;;;;;;1.83;0.97;;;;;;;;;;4880773;29;20222;-76
2021/03/13 03:53:34;;;;;;;2.90;1.00;;;;;;;;;;4881101;29;20186;-76
2021/03/13 03:56:40;;;;;;;2.47;0.93;;;;;;;;;;4897126;29;20193;-76
2021/03/13 03:59:46;;;;;;;2.37;0.90;;;;;;;;;;4899597;29;20178;-76
2021/03/13 04:02:53;;;;;;;2.53;0.90;;;;;;;;;;4899564;29;20189;-76
2021/03/13 04:05:58;;;;;;;2.40;1.00;;;;;;;;;;4880870;29;20193;-77
2021/03/13 04:09:04;;;;;;;3.67;1.00;;;;;;;;;;4880772;29;20198;-76
2021/03/13 04:12:09;;;;;;;3.70;0.90;;;;;;;;;;4898894;29;20224;-77
2021/03/13 04:15:15;;;;;;;1.10;0.60;;;;;;;;;;4899209;29;20190;-77
2021/03/13 04:18:20;;;;;;;3.03;0.80;;;;;;;;;;4899304;29;20559;-76
2021/03/13 04:21:26;;;;;;;3.33;0.70;;;;;;;;;;4880912;29;20638;-76
2021/03/13 04:24:31;;;;;;;1.53;0.67;;;;;;;;;;4880136;29;20197;-77
2021/03/13 04:27:44;;;;;;;3.03;0.80;;;;;;;;;;4881341;29;20599;-76
2021/03/13 04:30:50;;;;;;;1.83;1.13;;;;;;;;;;4896823;29;20225;-77
2021/03/13 04:34:00;;;;;;;3.10;0.90;;;;;;;;;;4880260;29;21156;-76
2021/03/13 04:37:05;;;;;;;3.20;1.00;;;;;;;;;;4880977;29;20182;-76
2021/03/13 04:40:12;;;;;;;1.07;0.73;;;;;;;;;;4901949;29;20186;-77
2021/03/13 04:43:19;;;;;;;2.90;0.97;;;;;;;;;;4890425;29;20599;-76
2021/03/13 04:46:24;;;;;;;1.60;0.90;;;;;;;;;;4893206;29;20206;-76
2021/03/13 04:49:29;;;;;;;2.20;0.80;;;;;;;;;;4898656;29;20189;-75
2021/03/13 04:52:33;;;;;;;2.77;0.90;;;;;;;;;;4899668;29;20178;-75
2021/03/13 04:55:38;;;;;;;3.43;0.97;;;;;;;;;;4898396;29;20198;-76
2021/03/13 04:58:42;;;;;;;3.47;0.90;;;;;;;;;;4898016;29;20594;-75
2021/03/13 05:01:47;;;;;;;2.53;0.90;;;;;;;;;;4898196;29;20629;-76
2021/03/13 05:04:51;;;;;;;2.23;1.00;;;;;;;;;;4898381;29;20590;-76
2021/03/13 05:07:55;;;;;;;3.47;1.00;;;;;;;;;;4898940;29;20217;-75
2021/03/13 05:10:59;;;;;;;2.13;1.00;;;;;;;;;;4897024;29;20653;-76
2021/03/13 05:14:04;;;;;;;2.73;0.90;;;;;;;;;;4897950;29;20205;-75
2021/03/13 05:17:08;;;;;;;1.40;1.10;;;;;;;;;;4898379;29;20919;-75
2021/03/13 05:20:13;;;;;;;1.47;0.90;;;;;;;;;;4898060;29;20221;-76
2021/03/13 05:23:17;;;;;;;3.27;1.10;;;;;;;;;;4897905;29;20197;-76
2021/03/13 05:26:21;;;;;;;2.93;0.83;;;;;;;;;;4898162;29;20594;-76
2021/03/13 05:29:25;;;;;;;2.70;0.80;;;;;;;;;;4897564;29;20193;-75
2021/03/13 05:32:30;;;;;;;1.63;0.93;;;;;;;;;;4897604;29;20543;-76
2021/03/13 05:35:37;;;;;;;4.00;0.90;;;;;;;;;;4897357;29;20673;-76
2021/03/13 05:38:40;;;;;;;2.23;0.80;;;;;;;;;;4898061;29;21070;-76
2021/03/13 05:41:46;;;;;;;1.80;0.90;;;;;;;;;;4886901;29;20629;-75
2021/03/13 05:44:54;;;;;;;1.60;0.70;;;;;;;;;;4896998;29;20610;-76
2021/03/13 05:48:01;;;;;;;1.73;0.90;;;;;;;;;;4897976;29;20209;-76
2021/03/13 05:51:05;;;;;;;1.57;0.87;;;;;;;;;;4897356;29;20233;-76
2021/03/13 05:54:13;;;;;;;0.70;0.70;;;;;;;;;;4898108;29;20197;-76
2021/03/13 05:57:19;;;;;;;3.43;0.90;;;;;;;;;;4897879;29;20194;-76
2021/03/13 06:00:23;;;;;;;4.67;1.07;;;;;;;;;;4879556;29;20230;-76
2021/03/13 06:03:31;;;;;;;1.40;0.80;;;;;;;;;;4892980;29;20193;-76
2021/03/13 06:06:39;;;;;;;1.50;0.90;;;;;;;;;;4897815;29;20605;-76
2021/03/13 06:09:43;;;;;;;7.40;1.13;;;;;;;;;;4898238;29;20182;-76
2021/03/13 06:12:47;;;;;;;1.90;1.00;;;;;;;;;;4898300;29;20672;-77
2021/03/13 06:15:54;;;;;;;2.03;0.63;;;;;;;;;;4886577;29;20209;-77
2021/03/13 06:18:59;;;;;;;2.57;1.70;;;;;;;;;;4897648;29;20201;-76
2021/03/13 06:22:03;;;;;;;1.97;0.90;;;;;;;;;;4900919;29;20565;-76
2021/03/13 06:25:14;;;;;;;1.73;0.90;;;;;;;;;;4901185;29;20193;-77
2021/03/13 06:28:19;;;;;;;1.53;0.77;;;;;;;;;;4901522;29;20217;-77
2021/03/13 06:31:26;;;;;;;3.30;1.80;;;;;;;;;;4901425;29;20221;-78
2021/03/13 06:34:30;;;;;;;1.60;1.30;;;;;;;;;;4901630;29;20209;-77
2021/03/13 06:37:34;;;;;;;2.97;0.83;;;;;;;;;;4949783;23;20602;-76
2021/03/13 06:40:38;;;;;;;1.70;1.03;;;;;;;;;;4938626;29;20232;-76
2021/03/13 06:43:43;;;;;;;3.83;0.97;;;;;;;;;;4939636;29;20188;-76
2021/03/13 06:46:47;;;;;;;2.60;0.70;;;;;;;;;;4923070;29;20196;-75
2021/03/13 06:50:13;;;;;;;5.80;0.80;;;;;;;;;;4935804;29;20207;-76
2021/03/13 06:53:18;;;;;;;1.60;0.83;;;;;;;;;;4924728;29;20197;-76
2021/03/13 06:56:25;;;;;;;1.27;0.60;;;;;;;;;;4932650;29;20188;-76
2021/03/13 06:59:39;;;;;;;2.37;0.70;;;;;;;;;;4937839;29;20177;-76
2021/03/13 07:02:43;;;;;;;1.47;0.70;;;;;;;;;;4919684;29;20181;-75
2021/03/13 07:05:47;;;;;;;2.07;0.83;;;;;;;;;;4921021;29;20204;-76
2021/03/13 07:08:53;;;;;;;2.10;0.80;;;;;;;;;;4923139;29;20207;-75
2021/03/13 07:11:57;;;;;;;1.47;0.70;;;;;;;;;;4920143;29;20229;-75
2021/03/13 07:15:12;;;;;;;2.23;1.10;;;;;;;;;;4919949;29;20193;-75
2021/03/13 07:18:16;;;;;;;1.30;0.70;;;;;;;;;;4919904;29;20182;-76
2021/03/13 07:21:22;;;;;;;1.10;0.80;;;;;;;;;;4926839;29;20220;-76
2021/03/13 07:24:26;;;;;;;2.13;0.77;;;;;;;;;;4919718;29;20184;-75
2021/03/13 07:27:33;;;;;;;2.57;1.60;;;;;;;;;;4934138;29;20219;-76
2021/03/13 07:30:38;;;;;;;2.40;1.10;;;;;;;;;;4912830;29;20224;-76
2021/03/13 07:33:45;;;;;;;2.93;1.00;;;;;;;;;;4918503;29;20185;-76
2021/03/13 07:36:52;;;;;;;1.93;0.70;;;;;;;;;;4922642;29;20207;-75
2021/03/13 07:39:58;;;;;;;1.87;0.93;;;;;;;;;;4920572;29;20192;-76
2021/03/13 07:43:03;;;;;;;3.40;1.73;;;;;;;;;;4918506;29;20204;-76
2021/03/13 07:46:08;;;;;;;5.30;1.17;;;;;;;;;;4923290;29;20189;-76
2021/03/13 07:49:13;;;;;;;1.60;0.67;;;;;;;;;;4929913;29;20208;-75
2021/03/13 07:52:19;;;;;;;1.00;0.87;;;;;;;;;;4935908;29;20200;-75
2021/03/13 07:55:24;;;;;;;2.57;1.07;;;;;;;;;;4918780;29;20189;-76
2021/03/13 07:58:29;;;;;;;2.27;0.97;;;;;;;;;;4921108;29;20196;-76
2021/03/13 08:01:48;;;;;;;2.33;1.00;;;;;;;;;;4919375;29;20696;-76
2021/03/13 08:04:56;;;;;;;2.00;0.70;;;;;;;;;;4930194;29;20192;-76
2021/03/13 08:08:06;;;;;;;2.50;0.83;;;;;;;;;;4936310;29;20220;-75
2021/03/13 08:11:28;;;;;;;2.70;0.90;;;;;;;;;;4908635;29;20561;-76
2021/03/13 08:14:34;;;;;;;3.23;1.37;;;;;;;;;;4927005;29;20193;-75
2021/03/13 08:17:41;;;;;;;1.57;0.97;;;;;;;;;;4925548;29;20204;-75
2021/03/13 08:20:46;;;;;;;2.63;1.00;;;;;;;;;;4926573;29;20216;-75
2021/03/13 08:23:57;;;;;;;2.07;0.93;;;;;;;;;;4927035;29;20197;-76
2021/03/13 08:27:01;;;;;;;3.90;0.90;;;;;;;;;;4920144;29;20201;-78
2021/03/13 08:30:19;;;;;;;0.87;0.60;;;;;;;;;;4914581;29;20193;-79
2021/03/13 08:33:26;;;;;;;1.47;0.80;;;;;;;;;;4925117;29;20648;-77
2021/03/13 08:36:47;;;;;;;3.97;0.80;;;;;;;;;;4917222;29;20671;-78
2021/03/13 08:39:51;;;;;;;2.80;0.93;;;;;;;;;;4926646;29;20189;-80
2021/03/13 08:42:55;;;;;;;2.63;0.83;;;;;;;;;;4930438;29;20208;-78
2021/03/13 08:46:00;;;;;;;1.67;0.90;;;;;;;;;;4917690;29;20205;-76
2021/03/13 08:49:04;;;;;;;2.97;0.93;;;;;;;;;;4928148;29;20208;-76
2021/03/13 08:52:09;;;;;;;2.57;0.80;;;;;;;;;;4926994;29;20224;-76
2021/03/13 08:55:32;;;;;;;3.43;0.80;;;;;;;;;;4923358;29;20192;-75
2021/03/13 08:58:42;;;;;;;2.70;0.80;;;;;;;;;;4936066;29;20185;-76
2021/03/13 09:02:22;;;;;;;2.40;0.90;;;;;;;;;;4934271;29;20224;-76
2021/03/13 09:05:39;;;;;;;37.90;26.70;;;;;;;;;;4934048;29;20558;-76
2021/03/13 09:09:16;;;;;;;3.87;2.00;;;;;;;;;;4936065;29;20216;-76
2021/03/13 09:12:34;;;;;;;4.90;2.00;;;;;;;;;;4917948;29;20680;-75
2021/03/13 09:15:38;;;;;;;4.53;2.10;;;;;;;;;;4933520;29;20184;-76
2021/03/13 09:18:56;;;;;;;3.60;1.20;;;;;;;;;;4918054;29;20181;-77
2021/03/13 09:22:05;;;;;;;4.23;1.53;;;;;;;;;;4917039;29;20228;-76
2021/03/13 09:25:15;;;;;;;5.27;1.73;;;;;;;;;;4905740;29;20193;-76
2021/03/13 09:28:19;;;;;;;3.70;1.03;;;;;;;;;;4923702;29;20687;-76
2021/03/13 09:31:23;;;;;;;2.00;1.17;;;;;;;;;;4927562;29;20224;-76
2021/03/13 09:34:29;;;;;;;4.63;1.00;;;;;;;;;;4917301;29;20196;-76
2021/03/13 09:37:34;;;;;;;2.77;1.07;;;;;;;;;;4917982;29;20200;-76
2021/03/13 09:40:38;;;;;;;1.83;0.97;;;;;;;;;;4935626;29;20227;-76
2021/03/13 09:43:42;;;;;;;2.90;0.83;;;;;;;;;;4935929;29;20556;-76
2021/03/13 09:46:47;;;;;;;2.67;1.30;;;;;;;;;;4935259;29;20230;-76
2021/03/13 09:49:53;;;;;;;3.97;2.20;;;;;;;;;;4935828;29;20706;-76
2021/03/13 09:53:00;;;;;;;1.83;0.70;;;;;;;;;;4935533;29;20525;-76
2021/03/13 09:56:06;;;;;;;2.23;0.90;;;;;;;;;;4932738;29;20663;-76
2021/03/13 09:59:10;;;;;;;2.03;0.80;;;;;;;;;;4935985;29;20193;-76
2021/03/13 10:02:15;;;;;;;2.23;0.80;;;;;;;;;;4905350;29;20228;-76
2021/03/13 10:05:25;;;;;;;1.43;0.80;;;;;;;;;;4920517;29;20196;-76
2021/03/13 10:08:38;;;;;;;1.47;0.60;;;;;;;;;;4936017;29;20212;-77
2021/03/13 10:11:43;;;;;;;0.70;0.60;;;;;;;;;;4934998;29;20216;-76
2021/03/13 10:14:49;;;;;;;9.07;1.00;;;;;;;;;;4917688;29;20196;-76
2021/03/13 10:17:59;;;;;;;0.80;0.50;;;;;;;;;;4935053;29;20203;-76
2021/03/13 10:21:06;;;;;;;1.77;0.70;;;;;;;;;;4917361;29;20220;-75
2021/03/13 10:24:10;;;;;;;4.57;0.60;;;;;;;;;;4916962;29;20200;-75
2021/03/13 10:27:26;;;;;;;4.13;0.73;;;;;;;;;;4916797;29;20659;-76
2021/03/13 10:30:30;;;;;;;3.97;1.63;;;;;;;;;;4916889;29;20225;-75
2021/03/13 10:33:35;;;;;;;1.20;0.60;;;;;;;;;;4905733;29;20193;-76
2021/03/13 10:36:43;;;;;;;1.40;0.77;;;;;;;;;;4909038;29;20216;-75
2021/03/13 10:39:48;;;;;;;3.50;1.53;;;;;;;;;;4934832;29;20185;-76
2021/03/13 10:42:52;;;;;;;1.43;0.83;;;;;;;;;;4918324;29;20205;-76
2021/03/13 10:45:56;;;;;;;2.90;1.30;;;;;;;;;;4905655;29;20185;-76
2021/03/13 10:49:02;;;;;;;1.37;1.17;;;;;;;;;;4932606;29;20212;-75
2021/03/13 10:52:06;;;;;;;4.97;1.80;;;;;;;;;;4934338;29;20228;-75
2021/03/13 10:55:10;;;;;;;1.87;0.87;;;;;;;;;;4933620;29;20536;-76
2021/03/13 10:58:21;;;;;;;2.63;1.73;;;;;;;;;;4915942;29;20189;-75
2021/03/13 11:01:25;;;;;;;1.97;1.20;;;;;;;;;;4915928;29;20557;-75
2021/03/13 11:04:30;;;;;;;5.90;3.43;;;;;;;;;;4916992;29;20625;-76
2021/03/13 11:07:34;;;;;;;3.63;2.10;;;;;;;;;;4917477;29;20185;-75
2021/03/13 11:10:39;;;;;;;7.20;2.47;;;;;;;;;;4931806;29;20220;-75
2021/03/13 11:13:43;;;;;;;2.03;1.33;;;;;;;;;;4936975;29;20196;-75
2021/03/13 11:16:48;;;;;;;2.57;1.70;;;;;;;;;;4929783;29;20200;-75
2021/03/13 11:19:52;;;;;;;2.40;1.13;;;;;;;;;;4926360;29;20197;-75
2021/03/13 11:22:57;;;;;;;2.50;0.80;;;;;;;;;;4937008;29;20200;-75
2021/03/13 11:26:01;;;;;;;4.03;0.67;;;;;;;;;;4938198;29;20204;-75
2021/03/13 11:29:05;;;;;;;1.63;0.80;;;;;;;;;;4919793;29;20553;-76
2021/03/13 11:32:10;;;;;;;4.57;3.40;;;;;;;;;;4935831;29;20220;-76
2021/03/13 11:35:15;;;;;;;4.70;2.90;;;;;;;;;;4932224;29;20188;-76
2021/03/13 11:38:19;;;;;;;11.43;5.83;;;;;;;;;;4918866;29;20185;-76
2021/03/13 11:41:23;;;;;;;3.97;1.87;;;;;;;;;;4921533;29;20225;-77
2021/03/13 11:44:28;;;;;;;2.63;1.60;;;;;;;;;;4937335;29;20188;-76
2021/03/13 11:47:32;;;;;;;0.87;0.63;;;;;;;;;;4936060;29;20200;-76
2021/03/13 11:50:45;;;;;;;0.87;0.60;;;;;;;;;;4924476;29;20220;-76
2021/03/13 11:53:55;;;;;;;1.40;0.90;;;;;;;;;;4916892;29;20189;-76
2021/03/13 11:56:59;;;;;;;1.40;0.80;;;;;;;;;;4918019;29;20200;-76
2021/03/13 12:00:09;;;;;;;1.93;0.90;;;;;;;;;;4919160;29;20177;-76
2021/03/13 12:03:13;;;;;;;2.20;1.00;;;;;;;;;;4931270;29;20200;-75
2021/03/13 12:06:17;;;;;;;1.70;0.60;;;;;;;;;;4938700;29;20192;-78
2021/03/13 12:09:22;;;;;;;3.70;0.50;;;;;;;;;;4937358;29;20698;-73
2021/03/13 12:12:26;;;;;;;2.23;0.60;;;;;;;;;;4937796;29;20192;-73
2021/03/13 12:15:30;;;;;;;1.33;0.30;;;;;;;;;;4937635;29;20184;-73
2021/03/13 12:18:34;;;;;;;1.70;0.43;;;;;;;;;;4936937;29;20188;-73
2021/03/13 12:21:39;;;;;;;0.70;0.40;;;;;;;;;;4937972;29;20223;-74
2021/03/13 12:24:43;;;;;;;2.10;0.80;;;;;;;;;;4918760;29;20189;-73
2021/03/13 12:27:47;;;;;;;2.23;0.53;;;;;;;;;;4923610;29;20196;-73
2021/03/13 12:30:51;;;;;;;1.23;0.77;;;;;;;;;;4936687;29;20220;-73
2021/03/13 12:33:56;;;;;;;2.00;1.27;;;;;;;;;;4936259;29;20207;-73
2021/03/13 12:37:00;;;;;;;4.57;1.80;;;;;;;;;;4937450;29;20207;-74
2021/03/13 12:40:07;;;;;;;2.27;1.50;;;;;;;;;;4937471;29;20189;-73
2021/03/13 12:43:11;;;;;;;1.37;0.60;;;;;;;;;;4937038;29;20191;-73
2021/03/13 12:46:16;;;;;;;0.50;0.50;;;;;;;;;;4937149;29;20192;-73
2021/03/13 12:49:21;;;;;;;3.73;0.67;;;;;;;;;;4936709;29;20226;-73
2021/03/13 12:52:25;;;;;;;4.83;0.70;;;;;;;;;;4937137;29;20188;-73
2021/03/13 12:55:29;;;;;;;1.57;0.60;;;;;;;;;;4933697;29;20560;-73
2021/03/13 12:58:33;;;;;;;1.07;0.60;;;;;;;;;;4936858;29;20667;-74
2021/03/13 13:01:38;;;;;;;3.67;0.67;;;;;;;;;;4936402;29;20223;-73
2021/03/13 13:04:42;;;;;;;6.57;0.90;;;;;;;;;;4933233;29;20189;-73
2021/03/13 13:07:46;;;;;;;1.50;0.77;;;;;;;;;;4936623;29;20191;-74
2021/03/13 13:10:51;;;;;;;0.63;0.40;;;;;;;;;;4936667;29;20231;-73
2021/03/13 13:13:55;;;;;;;1.60;0.40;;;;;;;;;;4936100;29;20552;-73
2021/03/13 13:16:59;;;;;;;0.50;0.40;;;;;;;;;;4924956;29;20188;-73
2021/03/13 13:20:08;;;;;;;0.57;0.40;;;;;;;;;;4936728;29;20180;-73
2021/03/13 13:23:12;;;;;;;1.13;0.50;;;;;;;;;;4936630;29;20192;-73
2021/03/13 13:26:16;;;;;;;2.80;0.90;;;;;;;;;;4935758;29;20200;-74
2021/03/13 13:29:22;;;;;;;2.73;1.70;;;;;;;;;;4916755;29;20213;-73
2021/03/13 13:32:26;;;;;;;2.90;1.30;;;;;;;;;;4922679;29;20199;-73
2021/03/13 13:35:31;;;;;;;1.13;0.83;;;;;;;;;;4936502;29;20184;-73
2021/03/13 13:38:36;;;;;;;3.67;1.60;;;;;;;;;;4935188;29;20260;-73
2021/03/13 13:41:40;;;;;;;1.60;0.87;;;;;;;;;;4936421;29;20560;-73
2021/03/13 13:44:44;;;;;;;1.10;0.90;;;;;;;;;;4917093;29;20189;-73
2021/03/13 13:47:48;;;;;;;23.77;17.87;;;;;;;;;;4954542;23;20226;-73
2021/03/13 13:50:52;;;;;;;8.00;7.13;;;;;;;;;;4959168;28;20238;-73
2021/03/13 13:53:56;;;;;;;25.10;15.97;;;;;;;;;;4937621;29;20204;-73
2021/03/13 13:57:02;;;;;;;11.10;3.23;;;;;;;;;;4935184;29;20187;-73
2021/03/13 14:00:09;;;;;;;4.80;3.27;;;;;;;;;;4928863;28;20190;-73
2021/03/13 14:03:13;;;;;;;4.83;2.97;;;;;;;;;;4927124;29;20193;-73
2021/03/13 14:06:17;;;;;;;2.20;1.63;;;;;;;;;;4917611;29;20185;-73
2021/03/13 14:09:21;;;;;;;8.30;4.17;;;;;;;;;;4935395;29;20215;-73
2021/03/13 14:12:25;;;;;;;4.83;1.60;;;;;;;;;;4926922;29;20662;-72
2021/03/13 14:15:30;;;;;;;2.93;1.93;;;;;;;;;;4937355;29;20529;-73
2021/03/13 14:18:34;;;;;;;3.00;1.50;;;;;;;;;;4936163;29;20184;-73
2021/03/13 14:21:38;;;;;;;3.17;1.00;;;;;;;;;;4951922;28;20215;-73
2021/03/13 14:24:42;;;;;;;6.13;0.90;;;;;;;;;;4937975;29;20191;-73
2021/03/13 14:27:49;;;;;;;1.30;0.60;;;;;;;;;;4955518;29;20180;-73
2021/03/13 14:30:52;;;;;;;1.20;0.70;;;;;;;;;;4947881;28;20572;-74
2021/03/13 14:33:57;;;;;;;1.03;0.60;;;;;;;;;;4945654;29;20663;-74
2021/03/13 14:37:01;;;;;;;2.40;1.10;;;;;;;;;;4935977;29;20185;-73
2021/03/13 14:40:06;;;;;;;4.57;2.20;;;;;;;;;;4934915;29;20176;-74
2021/03/13 14:43:11;;;;;;;2.47;1.00;;;;;;;;;;4954909;28;20183;-74
2021/03/13 14:46:15;;;;;;;1.87;0.83;;;;;;;;;;4958417;29;20681;-74
2021/03/13 14:49:19;;;;;;;0.90;0.80;;;;;;;;;;4948947;29;20188;-73
2021/03/13 14:52:24;;;;;;;2.23;1.13;;;;;;;;;;4942140;29;20199;-74
2021/03/13 14:55:28;;;;;;;0.93;0.60;;;;;;;;;;4958196;29;20183;-74
2021/03/13 14:58:33;;;;;;;1.93;0.60;;;;;;;;;;4958689;29;20195;-73
2021/03/13 15:01:36;;;;;;;1.87;1.10;;;;;;;;;;4953076;28;20216;-74
2021/03/13 15:04:40;;;;;;;1.77;0.60;;;;;;;;;;4920836;29;20177;-73
2021/03/13 15:07:45;;;;;;;1.97;1.47;;;;;;;;;;4920845;29;20189;-73
2021/03/13 15:10:50;;;;;;;3.93;1.20;;;;;;;;;;4919423;29;20241;-73
2021/03/13 15:13:54;;;;;;;9.63;3.47;;;;;;;;;;4934820;29;20647;-74
2021/03/13 15:16:58;;;;;;;5.30;2.50;;;;;;;;;;4939309;29;20180;-73
2021/03/13 15:20:08;;;;;;;1.47;0.90;;;;;;;;;;4938406;29;20656;-73
2021/03/13 15:23:14;;;;;;;2.43;0.60;;;;;;;;;;4946711;29;20192;-73
2021/03/13 15:26:18;;;;;;;1.77;0.80;;;;;;;;;;4958160;29;20192;-73
2021/03/13 15:29:23;;;;;;;2.60;0.70;;;;;;;;;;4947331;29;20192;-73
2021/03/13 15:32:27;;;;;;;3.37;1.73;;;;;;;;;;4929399;29;20189;-73
2021/03/13 15:35:32;;;;;;;4.67;4.27;;;;;;;;;;4957439;29;20191;-73
2021/03/13 15:38:38;;;;;;;6.53;1.50;;;;;;;;;;4951236;29;20200;-73
2021/03/13 15:41:43;;;;;;;1.50;1.07;;;;;;;;;;4926685;29;20228;-72
2021/03/13 15:44:48;;;;;;;1.80;1.30;;;;;;;;;;4918469;29;20200;-74
2021/03/13 15:47:52;;;;;;;1.13;0.73;;;;;;;;;;4924943;29;20216;-73
2021/03/13 15:50:57;;;;;;;6.30;1.50;;;;;;;;;;4937637;29;20231;-73
2021/03/13 15:54:02;;;;;;;6.43;1.17;;;;;;;;;;4950084;28;20195;-73
2021/03/13 15:57:07;;;;;;;0.80;0.50;;;;;;;;;;4957147;29;20188;-73
2021/03/13 16:00:14;;;;;;;0.73;0.60;;;;;;;;;;4919086;29;20181;-73
2021/03/13 16:03:18;;;;;;;3.33;1.30;;;;;;;;;;4933894;29;20192;-74
2021/03/13 16:06:23;;;;;;;1.13;0.80;;;;;;;;;;4936546;29;20204;-74
2021/03/13 16:09:27;;;;;;;0.53;0.40;;;;;;;;;;4954677;29;20204;-74
2021/03/13 16:12:31;;;;;;;0.97;0.60;;;;;;;;;;4944873;29;20195;-74
2021/03/13 16:15:35;;;;;;;0.90;0.60;;;;;;;;;;4954604;29;20191;-75
2021/03/13 16:18:41;;;;;;;2.87;1.23;;;;;;;;;;4942629;29;20192;-74
2021/03/13 16:21:51;;;;;;;4.03;2.30;;;;;;;;;;4935629;29;20216;-74
2021/03/13 16:24:55;;;;;;;0.70;0.60;;;;;;;;;;4938036;29;20191;-74
2021/03/13 16:28:02;;;;;;;1.77;0.70;;;;;;;;;;4942037;29;20202;-74
2021/03/13 16:31:06;;;;;;;0.73;0.57;;;;;;;;;;4954764;28;20227;-73
2021/03/13 16:34:14;;;;;;;0.37;0.37;;;;;;;;;;4945102;29;20192;-74
2021/03/13 16:37:19;;;;;;;0.40;0.40;;;;;;;;;;4937115;29;20636;-74
2021/03/13 16:40:26;;;;;;;0.40;0.40;;;;;;;;;;4936191;29;20647;-74
2021/03/13 16:43:41;;;;;;;0.40;0.40;;;;;;;;;;4947051;29;21165;-73
2021/03/13 16:46:46;;;;;;;0.60;0.40;;;;;;;;;;4940647;29;20623;-74
2021/03/13 16:49:50;;;;;;;0.97;0.60;;;;;;;;;;4936335;29;20548;-73
2021/03/13 16:52:55;;;;;;;0.47;0.47;;;;;;;;;;4929347;29;20587;-72
2021/03/13 16:56:05;;;;;;;0.40;0.40;;;;;;;;;;4955487;29;20552;-72
2021/03/13 16:59:14;;;;;;;0.60;0.50;;;;;;;;;;4923127;29;20601;-73
2021/03/13 17:02:19;;;;;;;0.43;0.43;;;;;;;;;;4933012;29;20591;-73
2021/03/13 17:05:24;;;;;;;1.17;0.47;;;;;;;;;;4917013;29;20538;-73
2021/03/13 17:08:28;;;;;;;0.53;0.37;;;;;;;;;;4911093;29;20602;-73
2021/03/13 17:11:32;;;;;;;0.50;0.50;;;;;;;;;;4947233;29;21232;-74
2021/03/13 17:14:42;;;;;;;0.37;0.37;;;;;;;;;;4936083;29;20878;-74
2021/03/13 17:17:46;;;;;;;0.63;0.47;;;;;;;;;;4952078;29;21184;-74
2021/03/13 17:20:51;;;;;;;1.93;0.50;;;;;;;;;;4942326;28;20650;-74
2021/03/13 17:23:56;;;;;;;0.63;0.60;;;;;;;;;;4937049;29;20588;-73
2021/03/13 17:27:00;;;;;;;1.47;0.50;;;;;;;;;;4936275;29;20540;-74
2021/03/13 17:30:07;;;;;;;2.20;1.50;;;;;;;;;;4941923;28;20622;-74
2021/03/13 17:33:11;;;;;;;1.50;0.57;;;;;;;;;;4954682;29;20603;-73
2021/03/13 17:36:22;;;;;;;1.00;0.70;;;;;;;;;;4942435;29;20619;-74
2021/03/13 17:39:31;;;;;;;0.93;0.67;;;;;;;;;;4921765;29;20549;-74
2021/03/13 17:42:36;;;;;;;1.07;0.60;;;;;;;;;;4954722;29;20591;-74
2021/03/13 17:45:41;;;;;;;2.03;1.00;;;;;;;;;;4955778;29;20544;-73
2021/03/13 17:48:47;;;;;;;0.80;0.60;;;;;;;;;;4942991;29;20616;-73
2021/03/13 17:51:51;;;;;;;2.60;1.10;;;;;;;;;;4937912;29;20660;-73
2021/03/13 17:54:56;;;;;;;3.97;1.70;;;;;;;;;;4948035;29;20595;-74
2021/03/13 17:58:08;;;;;;;3.97;1.90;;;;;;;;;;4935806;29;20608;-74
2021/03/13 18:01:16;;;;;;;8.93;3.40;;;;;;;;;;4916608;29;20968;-74
2021/03/13 18:04:21;;;;;;;9.30;2.93;;;;;;;;;;4944902;29;20576;-73
2021/03/13 18:07:27;;;;;;;6.13;2.17;;;;;;;;;;4935432;29;20596;-74
2021/03/13 18:10:38;;;;;;;16.63;4.87;;;;;;;;;;4935131;29;20659;-73
2021/03/13 18:13:50;;;;;;;17.97;6.33;;;;;;;;;;4935021;29;20956;-74
2021/03/13 18:17:06;;;;;;;2.53;1.30;;;;;;;;;;4930868;29;20591;-73
2021/03/13 18:20:16;;;;;;;3.37;1.60;;;;;;;;;;4955066;28;21216;-74
2021/03/13 18:23:25;;;;;;;16.80;6.60;;;;;;;;;;4955049;29;21160;-73
2021/03/13 18:26:30;;;;;;;7.27;2.10;;;;;;;;;;4926335;29;20584;-74
2021/03/13 18:29:35;;;;;;;14.03;5.73;;;;;;;;;;4939123;29;20556;-73
2021/03/13 18:32:48;;;;;;;3.77;2.13;;;;;;;;;;4947043;29;20600;-73
2021/03/13 18:35:53;;;;;;;1.33;0.70;;;;;;;;;;4955025;29;20587;-73
2021/03/13 18:38:57;;;;;;;2.33;1.10;;;;;;;;;;4957773;29;20602;-73
2021/03/13 18:42:04;;;;;;;2.73;0.70;;;;;;;;;;4946072;28;20643;-73